sensor_id;sensor_type;location;lat;lon;timestamp;temperature;humidity
4795;DHT22;2411;47.060;15.064;2023-05-16T00:01:29;10.90;1.00
4795;DHT22;2411;47.060;15.064;2023-05-16T00:03:57;11.00;1.00
4795;DHT22;2411;47.060;15.064;2023-05-16T00:06:24;10.90;1.00
4795;DHT22;2411;47.060;15.064;2023-05-16T00:08:51;10.80;1.00
4795;DHT22;2411;47.060;15.064;2023-05-16T00:11:18;10.80;1.10
4795;DHT22;2411;47.060;15.064;2023-05-16T00:13:46;10.80;1.00
4795;DHT22;2411;47.060;15.064;2023-05-16T00:16:14;10.80;1.90
4795;DHT22;2411;47.060;15.064;2023-05-16T00:18:41;10.70;1.90
4795;DHT22;2411;47.060;15.064;2023-05-16T00:21:11;10.60;1.00
4795;DHT22;2411;47.060;15.064;2023-05-16T00:23:39;10.60;1.00
4795;DHT22;2411;47.060;15.064;2023-05-16T00:26:06;10.50;1.00
4795;DHT22;2411;47.060;15.064;2023-05-16T00:28:34;10.50;1.00
4795;DHT22;2411;47.060;15.064;2023-05-16T00:31:01;10.60;1.00
4795;DHT22;2411;47.060;15.064;2023-05-16T00:33:29;10.60;1.00
4795;DHT22;2411;47.060;15.064;2023-05-16T00:35:56;10.60;1.00
4795;DHT22;2411;47.060;15.064;2023-05-16T00:38:24;10.70;1.00
4795;DHT22;2411;47.060;15.064;2023-05-16T00:40:52;10.70;1.00
4795;DHT22;2411;47.060;15.064;2023-05-16T00:43:19;10.80;1.00
4795;DHT22;2411;47.060;15.064;2023-05-16T00:45:46;10.80;1.00
4795;DHT22;2411;47.060;15.064;2023-05-16T00:48:14;10.80;1.00
4795;DHT22;2411;47.060;15.064;2023-05-16T00:50:42;10.80;1.00
4795;DHT22;2411;47.060;15.064;2023-05-16T00:53:10;10.80;1.00
4795;DHT22;2411;47.060;15.064;2023-05-16T00:55:38;10.80;1.00
4795;DHT22;2411;47.060;15.064;2023-05-16T00:58:05;10.70;1.00
4795;DHT22;2411;47.060;15.064;2023-05-16T01:00:33;10.70;1.00
4795;DHT22;2411;47.060;15.064;2023-05-16T01:03:00;10.70;1.50
4795;DHT22;2411;47.060;15.064;2023-05-16T01:05:28;10.60;6.90
4795;DHT22;2411;47.060;15.064;2023-05-16T01:07:56;10.50;2.90
4795;DHT22;2411;47.060;15.064;2023-05-16T01:10:23;10.50;3.10
4795;DHT22;2411;47.060;15.064;2023-05-16T01:15:34;10.50;1.90
4795;DHT22;2411;47.060;15.064;2023-05-16T01:18:11;10.60;2.00
4795;DHT22;2411;47.060;15.064;2023-05-16T01:28:23;10.50;5.70
4795;DHT22;2411;47.060;15.064;2023-05-16T01:30:52;10.60;10.10
4795;DHT22;2411;47.060;15.064;2023-05-16T01:33:19;10.60;7.10
4795;DHT22;2411;47.060;15.064;2023-05-16T01:35:54;10.60;19.90
4795;DHT22;2411;47.060;15.064;2023-05-16T01:41:27;10.60;7.00
4795;DHT22;2411;47.060;15.064;2023-05-16T01:43:59;10.60;8.00
4795;DHT22;2411;47.060;15.064;2023-05-16T01:46:32;10.40;9.50
4795;DHT22;2411;47.060;15.064;2023-05-16T01:51:51;10.30;8.80
4795;DHT22;2411;47.060;15.064;2023-05-16T01:54:20;10.40;9.10
4795;DHT22;2411;47.060;15.064;2023-05-16T01:56:53;10.50;7.90
4795;DHT22;2411;47.060;15.064;2023-05-16T01:59:22;10.50;9.40
4795;DHT22;2411;47.060;15.064;2023-05-16T02:01:53;10.30;11.80
4795;DHT22;2411;47.060;15.064;2023-05-16T02:04:21;10.20;14.20
4795;DHT22;2411;47.060;15.064;2023-05-16T02:06:50;10.20;11.70
4795;DHT22;2411;47.060;15.064;2023-05-16T02:09:17;10.30;12.90
4795;DHT22;2411;47.060;15.064;2023-05-16T02:11:45;10.30;15.60
4795;DHT22;2411;47.060;15.064;2023-05-16T02:14:13;10.20;15.50
4795;DHT22;2411;47.060;15.064;2023-05-16T02:16:40;10.20;13.80
4795;DHT22;2411;47.060;15.064;2023-05-16T02:19:07;10.30;11.20
4795;DHT22;2411;47.060;15.064;2023-05-16T02:21:35;10.40;13.40
4795;DHT22;2411;47.060;15.064;2023-05-16T02:24:02;10.40;16.40
4795;DHT22;2411;47.060;15.064;2023-05-16T02:26:30;10.30;14.20
4795;DHT22;2411;47.060;15.064;2023-05-16T02:28:57;10.30;30.30
4795;DHT22;2411;47.060;15.064;2023-05-16T02:31:29;10.20;18.40
4795;DHT22;2411;47.060;15.064;2023-05-16T02:33:58;10.20;23.90
4795;DHT22;2411;47.060;15.064;2023-05-16T02:36:25;10.10;25.20
4795;DHT22;2411;47.060;15.064;2023-05-16T02:38:53;10.10;24.70
4795;DHT22;2411;47.060;15.064;2023-05-16T02:41:20;10.20;26.90
4795;DHT22;2411;47.060;15.064;2023-05-16T02:43:48;10.20;24.90
4795;DHT22;2411;47.060;15.064;2023-05-16T02:46:27;10.20;25.40
4795;DHT22;2411;47.060;15.064;2023-05-16T02:48:55;10.20;27.50
4795;DHT22;2411;47.060;15.064;2023-05-16T02:51:24;10.30;27.00
4795;DHT22;2411;47.060;15.064;2023-05-16T02:53:52;10.20;40.40
4795;DHT22;2411;47.060;15.064;2023-05-16T02:56:19;10.30;32.30
4795;DHT22;2411;47.060;15.064;2023-05-16T02:58:48;10.20;29.20
4795;DHT22;2411;47.060;15.064;2023-05-16T03:01:16;10.20;31.80
4795;DHT22;2411;47.060;15.064;2023-05-16T03:03:44;10.20;28.00
4795;DHT22;2411;47.060;15.064;2023-05-16T03:06:11;10.30;27.20
4795;DHT22;2411;47.060;15.064;2023-05-16T03:08:39;10.30;25.30
4795;DHT22;2411;47.060;15.064;2023-05-16T03:11:06;10.30;27.40
4795;DHT22;2411;47.060;15.064;2023-05-16T03:13:33;10.40;27.10
4795;DHT22;2411;47.060;15.064;2023-05-16T03:16:01;10.50;22.60
4795;DHT22;2411;47.060;15.064;2023-05-16T03:18:29;10.50;22.20
4795;DHT22;2411;47.060;15.064;2023-05-16T03:20:56;10.50;23.70
4795;DHT22;2411;47.060;15.064;2023-05-16T03:23:24;10.50;21.30
4795;DHT22;2411;47.060;15.064;2023-05-16T03:25:51;10.50;25.10
4795;DHT22;2411;47.060;15.064;2023-05-16T03:28:19;10.50;25.50
4795;DHT22;2411;47.060;15.064;2023-05-16T03:30:46;10.40;28.30
4795;DHT22;2411;47.060;15.064;2023-05-16T03:33:13;10.40;31.70
4795;DHT22;2411;47.060;15.064;2023-05-16T03:35:41;10.50;36.30
4795;DHT22;2411;47.060;15.064;2023-05-16T03:38:09;10.40;35.00
4795;DHT22;2411;47.060;15.064;2023-05-16T03:40:37;10.30;38.90
4795;DHT22;2411;47.060;15.064;2023-05-16T03:43:04;10.30;39.30
4795;DHT22;2411;47.060;15.064;2023-05-16T03:45:31;10.30;42.80
4795;DHT22;2411;47.060;15.064;2023-05-16T03:47:58;10.20;44.80
4795;DHT22;2411;47.060;15.064;2023-05-16T03:50:26;10.20;47.90
4795;DHT22;2411;47.060;15.064;2023-05-16T03:52:53;10.10;55.00
4795;DHT22;2411;47.060;15.064;2023-05-16T03:55:21;10.10;57.60
4795;DHT22;2411;47.060;15.064;2023-05-16T03:57:48;10.10;60.20
4795;DHT22;2411;47.060;15.064;2023-05-16T04:00:17;10.10;62.30
4795;DHT22;2411;47.060;15.064;2023-05-16T04:02:44;10.20;59.50
4795;DHT22;2411;47.060;15.064;2023-05-16T04:05:12;10.20;58.60
4795;DHT22;2411;47.060;15.064;2023-05-16T04:07:40;10.20;64.60
4795;DHT22;2411;47.060;15.064;2023-05-16T04:10:08;10.20;60.60
4795;DHT22;2411;47.060;15.064;2023-05-16T04:12:36;10.20;64.00
4795;DHT22;2411;47.060;15.064;2023-05-16T04:15:04;10.20;69.30
4795;DHT22;2411;47.060;15.064;2023-05-16T04:17:32;10.20;79.30
4795;DHT22;2411;47.060;15.064;2023-05-16T04:19:59;10.20;59.90
4795;DHT22;2411;47.060;15.064;2023-05-16T04:22:27;10.20;92.00
4795;DHT22;2411;47.060;15.064;2023-05-16T04:24:54;10.20;73.10
4795;DHT22;2411;47.060;15.064;2023-05-16T04:27:21;10.20;75.60
4795;DHT22;2411;47.060;15.064;2023-05-16T04:29:49;10.20;68.00
4795;DHT22;2411;47.060;15.064;2023-05-16T04:32:16;10.20;63.30
4795;DHT22;2411;47.060;15.064;2023-05-16T04:34:44;10.20;58.70
4795;DHT22;2411;47.060;15.064;2023-05-16T04:37:12;10.20;56.50
4795;DHT22;2411;47.060;15.064;2023-05-16T04:39:41;10.20;60.00
4795;DHT22;2411;47.060;15.064;2023-05-16T04:42:08;10.20;61.80
4795;DHT22;2411;47.060;15.064;2023-05-16T04:44:36;10.20;66.70
4795;DHT22;2411;47.060;15.064;2023-05-16T04:47:03;10.20;70.10
4795;DHT22;2411;47.060;15.064;2023-05-16T04:49:30;10.30;70.30
4795;DHT22;2411;47.060;15.064;2023-05-16T04:51:58;10.30;71.50
4795;DHT22;2411;47.060;15.064;2023-05-16T04:54:25;10.30;74.50
4795;DHT22;2411;47.060;15.064;2023-05-16T04:56:52;10.30;73.30
4795;DHT22;2411;47.060;15.064;2023-05-16T04:59:20;10.30;81.30
4795;DHT22;2411;47.060;15.064;2023-05-16T05:01:47;10.40;75.40
4795;DHT22;2411;47.060;15.064;2023-05-16T05:04:15;10.40;75.00
4795;DHT22;2411;47.060;15.064;2023-05-16T05:06:43;10.50;76.10
4795;DHT22;2411;47.060;15.064;2023-05-16T05:09:11;10.40;81.70
4795;DHT22;2411;47.060;15.064;2023-05-16T05:11:38;10.40;74.90
4795;DHT22;2411;47.060;15.064;2023-05-16T05:14:05;10.50;74.90
4795;DHT22;2411;47.060;15.064;2023-05-16T05:16:33;10.40;80.10
4795;DHT22;2411;47.060;15.064;2023-05-16T05:19:00;10.50;85.70
4795;DHT22;2411;47.060;15.064;2023-05-16T05:21:28;10.50;79.40
4795;DHT22;2411;47.060;15.064;2023-05-16T05:23:56;10.50;79.00
4795;DHT22;2411;47.060;15.064;2023-05-16T05:26:24;10.60;84.70
4795;DHT22;2411;47.060;15.064;2023-05-16T05:28:52;10.50;85.70
4795;DHT22;2411;47.060;15.064;2023-05-16T05:31:31;10.50;99.90
4795;DHT22;2411;47.060;15.064;2023-05-16T05:34:01;10.50;90.30
4795;DHT22;2411;47.060;15.064;2023-05-16T05:36:29;10.60;77.10
4795;DHT22;2411;47.060;15.064;2023-05-16T05:38:57;10.60;74.20
4795;DHT22;2411;47.060;15.064;2023-05-16T05:41:24;10.50;61.00
4795;DHT22;2411;47.060;15.064;2023-05-16T05:43:52;10.50;81.20
4795;DHT22;2411;47.060;15.064;2023-05-16T05:46:20;10.50;89.50
4795;DHT22;2411;47.060;15.064;2023-05-16T05:48:47;10.50;88.20
4795;DHT22;2411;47.060;15.064;2023-05-16T05:51:15;10.50;86.50
4795;DHT22;2411;47.060;15.064;2023-05-16T05:53:43;10.50;86.70
4795;DHT22;2411;47.060;15.064;2023-05-16T05:56:10;10.60;80.40
4795;DHT22;2411;47.060;15.064;2023-05-16T05:58:38;10.60;91.20
4795;DHT22;2411;47.060;15.064;2023-05-16T06:01:10;10.60;99.00
4795;DHT22;2411;47.060;15.064;2023-05-16T06:03:37;10.60;99.90
4795;DHT22;2411;47.060;15.064;2023-05-16T06:06:05;10.50;99.90
4795;DHT22;2411;47.060;15.064;2023-05-16T06:08:32;10.60;99.90
4795;DHT22;2411;47.060;15.064;2023-05-16T06:11:00;10.70;99.90
4795;DHT22;2411;47.060;15.064;2023-05-16T06:13:27;10.60;99.90
4795;DHT22;2411;47.060;15.064;2023-05-16T06:15:55;10.60;96.90
4795;DHT22;2411;47.060;15.064;2023-05-16T06:18:22;10.70;98.30
4795;DHT22;2411;47.060;15.064;2023-05-16T06:20:49;10.70;98.30
4795;DHT22;2411;47.060;15.064;2023-05-16T06:23:19;10.70;99.90
4795;DHT22;2411;47.060;15.064;2023-05-16T06:25:47;10.80;99.90
4795;DHT22;2411;47.060;15.064;2023-05-16T06:28:14;10.80;99.90
4795;DHT22;2411;47.060;15.064;2023-05-16T06:30:41;10.80;99.90
4795;DHT22;2411;47.060;15.064;2023-05-16T06:33:09;10.90;99.90
4795;DHT22;2411;47.060;15.064;2023-05-16T06:35:36;10.80;98.10
4795;DHT22;2411;47.060;15.064;2023-05-16T06:38:03;10.80;98.80
4795;DHT22;2411;47.060;15.064;2023-05-16T06:40:30;10.80;99.90
4795;DHT22;2411;47.060;15.064;2023-05-16T06:42:58;10.70;99.90
4795;DHT22;2411;47.060;15.064;2023-05-16T06:45:25;10.70;99.90
4795;DHT22;2411;47.060;15.064;2023-05-16T06:47:54;10.60;98.70
4795;DHT22;2411;47.060;15.064;2023-05-16T06:50:23;10.60;99.40
4795;DHT22;2411;47.060;15.064;2023-05-16T06:52:51;10.50;99.90
4795;DHT22;2411;47.060;15.064;2023-05-16T06:55:18;10.50;99.90
4795;DHT22;2411;47.060;15.064;2023-05-16T06:57:46;10.40;99.90
4795;DHT22;2411;47.060;15.064;2023-05-16T07:00:14;10.40;99.90
4795;DHT22;2411;47.060;15.064;2023-05-16T07:02:41;10.40;99.90
4795;DHT22;2411;47.060;15.064;2023-05-16T07:05:09;10.40;95.50
4795;DHT22;2411;47.060;15.064;2023-05-16T07:07:36;10.40;90.10
4795;DHT22;2411;47.060;15.064;2023-05-16T07:10:04;10.50;81.30
4795;DHT22;2411;47.060;15.064;2023-05-16T07:12:35;10.50;62.70
4795;DHT22;2411;47.060;15.064;2023-05-16T07:15:04;10.60;61.10
4795;DHT22;2411;47.060;15.064;2023-05-16T07:17:32;10.60;60.90
4795;DHT22;2411;47.060;15.064;2023-05-16T07:20:00;10.70;59.90
4795;DHT22;2411;47.060;15.064;2023-05-16T07:22:31;10.70;81.10
4795;DHT22;2411;47.060;15.064;2023-05-16T07:24:58;10.70;95.20
4795;DHT22;2411;47.060;15.064;2023-05-16T07:27:27;10.80;99.90
4795;DHT22;2411;47.060;15.064;2023-05-16T07:29:54;10.80;99.90
4795;DHT22;2411;47.060;15.064;2023-05-16T07:32:22;10.90;99.80
4795;DHT22;2411;47.060;15.064;2023-05-16T07:34:49;10.90;98.00
4795;DHT22;2411;47.060;15.064;2023-05-16T07:37:17;11.00;99.90
4795;DHT22;2411;47.060;15.064;2023-05-16T07:39:46;11.00;99.90
4795;DHT22;2411;47.060;15.064;2023-05-16T07:42:14;11.00;99.90
4795;DHT22;2411;47.060;15.064;2023-05-16T07:44:41;11.10;99.90
4795;DHT22;2411;47.060;15.064;2023-05-16T07:47:09;11.10;99.90
4795;DHT22;2411;47.060;15.064;2023-05-16T07:49:36;11.10;99.90
4795;DHT22;2411;47.060;15.064;2023-05-16T07:52:03;11.20;99.90
4795;DHT22;2411;47.060;15.064;2023-05-16T07:54:33;11.20;96.20
4795;DHT22;2411;47.060;15.064;2023-05-16T07:57:01;11.20;99.00
4795;DHT22;2411;47.060;15.064;2023-05-16T07:59:28;11.20;99.90
4795;DHT22;2411;47.060;15.064;2023-05-16T08:01:55;11.20;99.90
4795;DHT22;2411;47.060;15.064;2023-05-16T08:04:23;11.20;97.70
4795;DHT22;2411;47.060;15.064;2023-05-16T08:06:50;11.30;95.00
4795;DHT22;2411;47.060;15.064;2023-05-16T08:09:17;11.40;91.80
4795;DHT22;2411;47.060;15.064;2023-05-16T08:11:45;11.60;86.60
4795;DHT22;2411;47.060;15.064;2023-05-16T08:14:13;11.70;81.30
4795;DHT22;2411;47.060;15.064;2023-05-16T08:16:40;11.60;65.60
4795;DHT22;2411;47.060;15.064;2023-05-16T08:19:08;11.90;68.50
4795;DHT22;2411;47.060;15.064;2023-05-16T08:21:37;11.90;60.10
4795;DHT22;2411;47.060;15.064;2023-05-16T08:24:05;11.90;58.70
4795;DHT22;2411;47.060;15.064;2023-05-16T08:26:32;11.90;66.50
4795;DHT22;2411;47.060;15.064;2023-05-16T08:29:00;11.90;67.00
4795;DHT22;2411;47.060;15.064;2023-05-16T08:31:28;12.00;70.20
4795;DHT22;2411;47.060;15.064;2023-05-16T08:33:55;12.00;72.20
4795;DHT22;2411;47.060;15.064;2023-05-16T08:36:25;12.00;69.80
4795;DHT22;2411;47.060;15.064;2023-05-16T08:38:54;12.10;64.40
4795;DHT22;2411;47.060;15.064;2023-05-16T08:41:21;12.00;65.30
4795;DHT22;2411;47.060;15.064;2023-05-16T08:43:48;12.10;64.80
4795;DHT22;2411;47.060;15.064;2023-05-16T08:46:21;11.90;69.20
4795;DHT22;2411;47.060;15.064;2023-05-16T08:48:52;12.10;68.60
4795;DHT22;2411;47.060;15.064;2023-05-16T08:51:24;12.10;64.50
4795;DHT22;2411;47.060;15.064;2023-05-16T08:54:02;12.00;65.70
4795;DHT22;2411;47.060;15.064;2023-05-16T08:56:33;12.00;59.40
4795;DHT22;2411;47.060;15.064;2023-05-16T08:59:01;12.20;61.60
4795;DHT22;2411;47.060;15.064;2023-05-16T09:01:30;12.20;58.60
4795;DHT22;2411;47.060;15.064;2023-05-16T09:04:00;12.30;64.60
4795;DHT22;2411;47.060;15.064;2023-05-16T09:06:33;12.30;60.30
4795;DHT22;2411;47.060;15.064;2023-05-16T09:09:00;12.40;58.70
4795;DHT22;2411;47.060;15.064;2023-05-16T09:11:28;12.50;58.00
4795;DHT22;2411;47.060;15.064;2023-05-16T09:13:56;12.60;56.70
4795;DHT22;2411;47.060;15.064;2023-05-16T09:16:23;12.50;56.80
4795;DHT22;2411;47.060;15.064;2023-05-16T09:19:00;12.50;56.40
4795;DHT22;2411;47.060;15.064;2023-05-16T09:21:33;12.50;79.20
4795;DHT22;2411;47.060;15.064;2023-05-16T09:24:07;12.40;55.60
4795;DHT22;2411;47.060;15.064;2023-05-16T09:26:37;12.40;50.60
4795;DHT22;2411;47.060;15.064;2023-05-16T09:29:11;12.50;52.00
4795;DHT22;2411;47.060;15.064;2023-05-16T09:31:39;12.50;46.60
4795;DHT22;2411;47.060;15.064;2023-05-16T09:34:08;12.50;43.10
4795;DHT22;2411;47.060;15.064;2023-05-16T09:36:36;12.40;44.20
4795;DHT22;2411;47.060;15.064;2023-05-16T09:39:05;12.40;41.80
4795;DHT22;2411;47.060;15.064;2023-05-16T09:41:34;12.50;50.30
4795;DHT22;2411;47.060;15.064;2023-05-16T09:44:05;12.50;52.60
4795;DHT22;2411;47.060;15.064;2023-05-16T09:46:34;12.50;47.00
4795;DHT22;2411;47.060;15.064;2023-05-16T09:49:02;12.30;44.00
4795;DHT22;2411;47.060;15.064;2023-05-16T09:51:29;12.30;46.00
4795;DHT22;2411;47.060;15.064;2023-05-16T09:53:58;12.30;45.80
4795;DHT22;2411;47.060;15.064;2023-05-16T09:56:26;12.30;48.60
4795;DHT22;2411;47.060;15.064;2023-05-16T09:58:56;12.30;49.70
4795;DHT22;2411;47.060;15.064;2023-05-16T10:01:24;12.40;47.50
4795;DHT22;2411;47.060;15.064;2023-05-16T10:03:52;12.50;51.00
4795;DHT22;2411;47.060;15.064;2023-05-16T10:06:19;12.50;55.20
4795;DHT22;2411;47.060;15.064;2023-05-16T10:08:50;12.60;44.00
4795;DHT22;2411;47.060;15.064;2023-05-16T10:11:18;12.50;46.40
4795;DHT22;2411;47.060;15.064;2023-05-16T10:13:47;12.50;45.80
4795;DHT22;2411;47.060;15.064;2023-05-16T10:16:21;12.50;53.00
4795;DHT22;2411;47.060;15.064;2023-05-16T10:18:50;12.50;49.10
4795;DHT22;2411;47.060;15.064;2023-05-16T10:21:18;12.40;48.50
4795;DHT22;2411;47.060;15.064;2023-05-16T10:23:49;12.30;45.10
4795;DHT22;2411;47.060;15.064;2023-05-16T10:26:18;12.30;49.90
4795;DHT22;2411;47.060;15.064;2023-05-16T10:28:47;12.40;53.10
4795;DHT22;2411;47.060;15.064;2023-05-16T10:31:15;12.30;50.00
4795;DHT22;2411;47.060;15.064;2023-05-16T10:33:43;12.20;53.40
4795;DHT22;2411;47.060;15.064;2023-05-16T10:36:12;12.20;52.70
4795;DHT22;2411;47.060;15.064;2023-05-16T10:38:41;12.20;59.10
4795;DHT22;2411;47.060;15.064;2023-05-16T10:41:09;12.20;55.80
4795;DHT22;2411;47.060;15.064;2023-05-16T10:43:37;12.20;48.20
4795;DHT22;2411;47.060;15.064;2023-05-16T10:46:06;12.20;40.90
4795;DHT22;2411;47.060;15.064;2023-05-16T10:48:39;12.10;39.10
4795;DHT22;2411;47.060;15.064;2023-05-16T10:53:53;12.20;38.00
4795;DHT22;2411;47.060;15.064;2023-05-16T10:56:22;12.30;38.50
4795;DHT22;2411;47.060;15.064;2023-05-16T10:58:52;12.40;40.20
4795;DHT22;2411;47.060;15.064;2023-05-16T11:06:43;12.40;49.60
4795;DHT22;2411;47.060;15.064;2023-05-16T11:16:50;12.40;49.80
4795;DHT22;2411;47.060;15.064;2023-05-16T11:19:29;12.40;45.30
4795;DHT22;2411;47.060;15.064;2023-05-16T11:22:05;12.40;43.80
4795;DHT22;2411;47.060;15.064;2023-05-16T11:24:37;12.50;46.60
4795;DHT22;2411;47.060;15.064;2023-05-16T11:27:05;12.40;73.50
4795;DHT22;2411;47.060;15.064;2023-05-16T11:29:34;12.50;46.40
4795;DHT22;2411;47.060;15.064;2023-05-16T11:32:04;12.60;48.10
4795;DHT22;2411;47.060;15.064;2023-05-16T11:34:35;12.60;48.70
4795;DHT22;2411;47.060;15.064;2023-05-16T11:37:05;12.50;48.70
4795;DHT22;2411;47.060;15.064;2023-05-16T11:39:33;12.50;46.10
4795;DHT22;2411;47.060;15.064;2023-05-16T11:42:00;12.50;46.80
4795;DHT22;2411;47.060;15.064;2023-05-16T11:44:28;12.60;51.10
4795;DHT22;2411;47.060;15.064;2023-05-16T11:46:55;12.60;46.90
4795;DHT22;2411;47.060;15.064;2023-05-16T11:49:23;12.50;47.30
4795;DHT22;2411;47.060;15.064;2023-05-16T11:51:53;12.50;46.90
4795;DHT22;2411;47.060;15.064;2023-05-16T11:54:21;12.50;48.80
4795;DHT22;2411;47.060;15.064;2023-05-16T11:56:50;12.40;48.20
4795;DHT22;2411;47.060;15.064;2023-05-16T11:59:18;12.50;54.30
4795;DHT22;2411;47.060;15.064;2023-05-16T12:01:46;12.50;50.20
4795;DHT22;2411;47.060;15.064;2023-05-16T12:04:16;12.50;41.40
4795;DHT22;2411;47.060;15.064;2023-05-16T12:06:44;12.50;48.00
4795;DHT22;2411;47.060;15.064;2023-05-16T12:09:13;12.60;50.00
4795;DHT22;2411;47.060;15.064;2023-05-16T12:11:44;12.70;46.00
4795;DHT22;2411;47.060;15.064;2023-05-16T12:14:12;12.80;43.40
4795;DHT22;2411;47.060;15.064;2023-05-16T12:16:41;13.00;47.40
4795;DHT22;2411;47.060;15.064;2023-05-16T12:19:10;13.10;34.50
4795;DHT22;2411;47.060;15.064;2023-05-16T12:21:38;13.50;42.90
4795;DHT22;2411;47.060;15.064;2023-05-16T12:24:09;13.60;40.00
4795;DHT22;2411;47.060;15.064;2023-05-16T12:26:39;13.50;40.80
4795;DHT22;2411;47.060;15.064;2023-05-16T12:29:07;13.50;39.00
4795;DHT22;2411;47.060;15.064;2023-05-16T12:31:39;13.40;37.90
4795;DHT22;2411;47.060;15.064;2023-05-16T12:34:17;13.50;37.10
4795;DHT22;2411;47.060;15.064;2023-05-16T12:36:50;13.60;38.90
4795;DHT22;2411;47.060;15.064;2023-05-16T12:39:17;13.50;37.50
4795;DHT22;2411;47.060;15.064;2023-05-16T12:41:45;13.60;41.50
4795;DHT22;2411;47.060;15.064;2023-05-16T12:44:14;13.70;37.20
4795;DHT22;2411;47.060;15.064;2023-05-16T12:46:50;13.80;36.00
4795;DHT22;2411;47.060;15.064;2023-05-16T12:49:21;13.80;31.40
4795;DHT22;2411;47.060;15.064;2023-05-16T12:51:53;13.70;31.70
4795;DHT22;2411;47.060;15.064;2023-05-16T12:54:21;13.70;33.80
4795;DHT22;2411;47.060;15.064;2023-05-16T12:56:49;13.60;34.40
4795;DHT22;2411;47.060;15.064;2023-05-16T12:59:16;13.50;38.50
4795;DHT22;2411;47.060;15.064;2023-05-16T13:01:45;13.40;42.10
4795;DHT22;2411;47.060;15.064;2023-05-16T13:04:12;13.30;37.20
4795;DHT22;2411;47.060;15.064;2023-05-16T13:06:45;13.10;34.90
4795;DHT22;2411;47.060;15.064;2023-05-16T13:09:25;12.90;33.50
4795;DHT22;2411;47.060;15.064;2023-05-16T13:11:58;12.80;37.10
4795;DHT22;2411;47.060;15.064;2023-05-16T13:14:25;12.80;34.90
4795;DHT22;2411;47.060;15.064;2023-05-16T13:16:53;12.70;38.30
4795;DHT22;2411;47.060;15.064;2023-05-16T13:19:20;12.60;36.80
4795;DHT22;2411;47.060;15.064;2023-05-16T13:21:49;12.60;36.20
4795;DHT22;2411;47.060;15.064;2023-05-16T13:24:16;12.50;38.70
4795;DHT22;2411;47.060;15.064;2023-05-16T13:26:43;12.40;40.50
4795;DHT22;2411;47.060;15.064;2023-05-16T13:29:11;12.50;42.50
4795;DHT22;2411;47.060;15.064;2023-05-16T13:31:38;12.40;45.10
4795;DHT22;2411;47.060;15.064;2023-05-16T13:34:06;12.40;45.60
4795;DHT22;2411;47.060;15.064;2023-05-16T13:36:33;12.30;47.50
4795;DHT22;2411;47.060;15.064;2023-05-16T13:39:20;12.30;45.40
4795;DHT22;2411;47.060;15.064;2023-05-16T13:41:48;12.20;53.70
4795;DHT22;2411;47.060;15.064;2023-05-16T13:44:15;12.20;53.90
4795;DHT22;2411;47.060;15.064;2023-05-16T13:46:44;12.20;54.50
4795;DHT22;2411;47.060;15.064;2023-05-16T13:49:11;12.30;64.20
4795;DHT22;2411;47.060;15.064;2023-05-16T13:51:39;12.30;60.20
4795;DHT22;2411;47.060;15.064;2023-05-16T13:54:06;12.20;53.60
4795;DHT22;2411;47.060;15.064;2023-05-16T13:56:34;12.20;54.40
4795;DHT22;2411;47.060;15.064;2023-05-16T13:59:01;12.10;46.40
4795;DHT22;2411;47.060;15.064;2023-05-16T14:01:33;12.00;40.20
4795;DHT22;2411;47.060;15.064;2023-05-16T14:04:01;11.90;39.20
4795;DHT22;2411;47.060;15.064;2023-05-16T14:06:29;11.90;50.40
4795;DHT22;2411;47.060;15.064;2023-05-16T14:08:57;11.90;41.40
4795;DHT22;2411;47.060;15.064;2023-05-16T14:11:24;11.80;46.00
4795;DHT22;2411;47.060;15.064;2023-05-16T14:13:56;11.80;50.30
4795;DHT22;2411;47.060;15.064;2023-05-16T14:16:23;11.80;53.70
4795;DHT22;2411;47.060;15.064;2023-05-16T14:18:51;11.70;50.90
4795;DHT22;2411;47.060;15.064;2023-05-16T14:21:19;11.70;48.00
4795;DHT22;2411;47.060;15.064;2023-05-16T14:23:46;11.70;52.00
4795;DHT22;2411;47.060;15.064;2023-05-16T14:26:14;11.70;48.70
4795;DHT22;2411;47.060;15.064;2023-05-16T14:28:42;11.70;48.30
4795;DHT22;2411;47.060;15.064;2023-05-16T14:31:09;11.70;53.10
4795;DHT22;2411;47.060;15.064;2023-05-16T14:33:37;11.80;56.40
4795;DHT22;2411;47.060;15.064;2023-05-16T14:36:07;11.80;54.20
4795;DHT22;2411;47.060;15.064;2023-05-16T14:38:34;11.70;57.80
4795;DHT22;2411;47.060;15.064;2023-05-16T14:41:02;11.60;64.20
4795;DHT22;2411;47.060;15.064;2023-05-16T14:43:29;11.60;66.70
4795;DHT22;2411;47.060;15.064;2023-05-16T14:45:57;11.60;66.60
4795;DHT22;2411;47.060;15.064;2023-05-16T14:48:24;11.70;59.30
4795;DHT22;2411;47.060;15.064;2023-05-16T14:50:52;11.60;52.10
4795;DHT22;2411;47.060;15.064;2023-05-16T14:53:19;11.60;51.80
4795;DHT22;2411;47.060;15.064;2023-05-16T14:55:47;11.40;52.50
4795;DHT22;2411;47.060;15.064;2023-05-16T14:58:15;11.30;50.00
4795;DHT22;2411;47.060;15.064;2023-05-16T15:00:43;11.40;52.10
4795;DHT22;2411;47.060;15.064;2023-05-16T15:03:10;11.40;56.50
4795;DHT22;2411;47.060;15.064;2023-05-16T15:05:40;11.40;58.00
4795;DHT22;2411;47.060;15.064;2023-05-16T15:08:08;11.40;56.30
4795;DHT22;2411;47.060;15.064;2023-05-16T15:10:35;11.30;58.60
4795;DHT22;2411;47.060;15.064;2023-05-16T15:13:02;11.30;58.50
4795;DHT22;2411;47.060;15.064;2023-05-16T15:15:30;11.20;61.50
4795;DHT22;2411;47.060;15.064;2023-05-16T15:17:59;11.10;64.40
4795;DHT22;2411;47.060;15.064;2023-05-16T15:20:26;11.10;72.70
4795;DHT22;2411;47.060;15.064;2023-05-16T15:22:54;11.10;73.60
4795;DHT22;2411;47.060;15.064;2023-05-16T15:25:22;11.00;70.40
4795;DHT22;2411;47.060;15.064;2023-05-16T15:27:49;10.80;64.90
4795;DHT22;2411;47.060;15.064;2023-05-16T15:30:17;10.70;67.30
4795;DHT22;2411;47.060;15.064;2023-05-16T15:32:45;10.70;69.20
4795;DHT22;2411;47.060;15.064;2023-05-16T15:35:12;10.70;59.20
4795;DHT22;2411;47.060;15.064;2023-05-16T15:37:42;10.70;63.20
4795;DHT22;2411;47.060;15.064;2023-05-16T15:40:12;10.60;60.90
4795;DHT22;2411;47.060;15.064;2023-05-16T15:42:39;10.60;49.70
4795;DHT22;2411;47.060;15.064;2023-05-16T15:45:12;10.60;49.90
4795;DHT22;2411;47.060;15.064;2023-05-16T15:47:40;10.60;28.90
4795;DHT22;2411;47.060;15.064;2023-05-16T15:50:08;10.70;25.50
4795;DHT22;2411;47.060;15.064;2023-05-16T15:52:36;10.80;21.40
4795;DHT22;2411;47.060;15.064;2023-05-16T15:55:04;10.80;20.20
4795;DHT22;2411;47.060;15.064;2023-05-16T15:57:32;10.80;22.00
4795;DHT22;2411;47.060;15.064;2023-05-16T16:00:03;10.70;29.50
4795;DHT22;2411;47.060;15.064;2023-05-16T16:02:30;10.80;19.80
4795;DHT22;2411;47.060;15.064;2023-05-16T16:04:58;10.80;18.40
4795;DHT22;2411;47.060;15.064;2023-05-16T16:07:25;10.70;29.80
4795;DHT22;2411;47.060;15.064;2023-05-16T16:09:53;10.60;38.30
4795;DHT22;2411;47.060;15.064;2023-05-16T16:12:20;10.50;44.90
4795;DHT22;2411;47.060;15.064;2023-05-16T16:14:48;10.50;46.70
4795;DHT22;2411;47.060;15.064;2023-05-16T16:17:16;10.50;47.60
4795;DHT22;2411;47.060;15.064;2023-05-16T16:19:43;10.60;25.10
4795;DHT22;2411;47.060;15.064;2023-05-16T16:22:10;10.50;46.10
4795;DHT22;2411;47.060;15.064;2023-05-16T16:24:38;10.40;48.60
4795;DHT22;2411;47.060;15.064;2023-05-16T16:27:05;10.50;53.60